sensor_id;sensor_type;location;lat;lon;timestamp;temperature;humidity
22716;DHT22;11525;51.152;4.456;2022-08-21T00:00:17;17.10;99.90
22716;DHT22;11525;51.152;4.456;2022-08-21T00:02:49;17.20;99.90
22716;DHT22;11525;51.152;4.456;2022-08-21T00:05:16;17.20;99.90
22716;DHT22;11525;51.152;4.456;2022-08-21T00:07:42;17.10;99.90
22716;DHT22;11525;51.152;4.456;2022-08-21T00:10:08;17.20;99.90
22716;DHT22;11525;51.152;4.456;2022-08-21T00:12:34;17.10;99.90
22716;DHT22;11525;51.152;4.456;2022-08-21T00:15:00;17.10;99.90
22716;DHT22;11525;51.152;4.456;2022-08-21T00:17:26;17.20;99.90
22716;DHT22;11525;51.152;4.456;2022-08-21T00:19:52;17.20;99.90
22716;DHT22;11525;51.152;4.456;2022-08-21T00:22:18;17.10;99.90
22716;DHT22;11525;51.152;4.456;2022-08-21T00:24:43;17.10;99.90
22716;DHT22;11525;51.152;4.456;2022-08-21T00:27:09;17.10;99.90
22716;DHT22;11525;51.152;4.456;2022-08-21T00:29:35;17.00;99.90
22716;DHT22;11525;51.152;4.456;2022-08-21T00:32:01;17.00;99.90
22716;DHT22;11525;51.152;4.456;2022-08-21T00:34:26;17.00;99.90
22716;DHT22;11525;51.152;4.456;2022-08-21T00:36:52;17.00;99.90
22716;DHT22;11525;51.152;4.456;2022-08-21T00:39:17;17.00;99.90
22716;DHT22;11525;51.152;4.456;2022-08-21T00:41:44;16.90;99.90
22716;DHT22;11525;51.152;4.456;2022-08-21T00:44:12;16.90;99.90
22716;DHT22;11525;51.152;4.456;2022-08-21T00:46:39;16.90;99.90
22716;DHT22;11525;51.152;4.456;2022-08-21T00:49:06;16.80;99.90
22716;DHT22;11525;51.152;4.456;2022-08-21T00:51:51;16.80;99.90
22716;DHT22;11525;51.152;4.456;2022-08-21T00:54:21;16.80;99.90
22716;DHT22;11525;51.152;4.456;2022-08-21T00:56:51;16.80;99.90
22716;DHT22;11525;51.152;4.456;2022-08-21T00:59:19;16.80;99.90
22716;DHT22;11525;51.152;4.456;2022-08-21T01:01:45;16.80;99.90
22716;DHT22;11525;51.152;4.456;2022-08-21T01:04:11;16.80;99.90
22716;DHT22;11525;51.152;4.456;2022-08-21T01:06:37;16.70;99.90
22716;DHT22;11525;51.152;4.456;2022-08-21T01:09:03;16.80;99.90
22716;DHT22;11525;51.152;4.456;2022-08-21T01:11:30;16.70;99.90
22716;DHT22;11525;51.152;4.456;2022-08-21T01:13:56;16.60;99.90
22716;DHT22;11525;51.152;4.456;2022-08-21T01:16:23;16.70;99.90
22716;DHT22;11525;51.152;4.456;2022-08-21T01:18:50;16.60;99.90
22716;DHT22;11525;51.152;4.456;2022-08-21T01:21:22;16.70;99.90
22716;DHT22;11525;51.152;4.456;2022-08-21T01:23:52;16.60;99.90
22716;DHT22;11525;51.152;4.456;2022-08-21T01:26:21;16.60;99.90
22716;DHT22;11525;51.152;4.456;2022-08-21T01:29:00;16.50;99.90
22716;DHT22;11525;51.152;4.456;2022-08-21T01:31:28;16.50;99.90
22716;DHT22;11525;51.152;4.456;2022-08-21T01:33:55;16.40;99.90
22716;DHT22;11525;51.152;4.456;2022-08-21T01:36:22;16.40;99.90
22716;DHT22;11525;51.152;4.456;2022-08-21T01:38:48;16.40;99.90
22716;DHT22;11525;51.152;4.456;2022-08-21T01:41:15;16.30;99.90
22716;DHT22;11525;51.152;4.456;2022-08-21T01:43:42;16.20;99.90
22716;DHT22;11525;51.152;4.456;2022-08-21T01:46:08;16.10;99.90
22716;DHT22;11525;51.152;4.456;2022-08-21T01:48:35;16.20;99.90
22716;DHT22;11525;51.152;4.456;2022-08-21T01:51:01;16.20;99.90
22716;DHT22;11525;51.152;4.456;2022-08-21T01:53:27;16.20;99.90
22716;DHT22;11525;51.152;4.456;2022-08-21T01:55:53;16.10;99.90
22716;DHT22;11525;51.152;4.456;2022-08-21T01:58:19;16.10;99.90
22716;DHT22;11525;51.152;4.456;2022-08-21T02:00:45;16.00;99.90
22716;DHT22;11525;51.152;4.456;2022-08-21T02:03:10;16.10;99.90
22716;DHT22;11525;51.152;4.456;2022-08-21T02:05:36;16.10;99.90
22716;DHT22;11525;51.152;4.456;2022-08-21T02:08:02;16.10;99.90
22716;DHT22;11525;51.152;4.456;2022-08-21T02:10:31;16.10;99.90
22716;DHT22;11525;51.152;4.456;2022-08-21T02:12:57;16.10;99.90
22716;DHT22;11525;51.152;4.456;2022-08-21T02:15:23;16.10;99.90
22716;DHT22;11525;51.152;4.456;2022-08-21T02:17:52;16.00;99.90
22716;DHT22;11525;51.152;4.456;2022-08-21T02:20:36;16.00;99.90
22716;DHT22;11525;51.152;4.456;2022-08-21T02:23:03;16.00;99.90
22716;DHT22;11525;51.152;4.456;2022-08-21T02:25:31;16.00;99.90
22716;DHT22;11525;51.152;4.456;2022-08-21T02:27:57;16.00;99.90
22716;DHT22;11525;51.152;4.456;2022-08-21T02:30:29;16.00;99.90
22716;DHT22;11525;51.152;4.456;2022-08-21T02:32:55;15.80;99.90
22716;DHT22;11525;51.152;4.456;2022-08-21T02:35:21;15.70;99.90
22716;DHT22;11525;51.152;4.456;2022-08-21T02:37:58;15.70;99.90
22716;DHT22;11525;51.152;4.456;2022-08-21T02:40:27;15.70;99.90
22716;DHT22;11525;51.152;4.456;2022-08-21T02:42:53;15.60;99.90
22716;DHT22;11525;51.152;4.456;2022-08-21T02:45:19;15.70;99.90
22716;DHT22;11525;51.152;4.456;2022-08-21T02:47:54;15.70;99.90
22716;DHT22;11525;51.152;4.456;2022-08-21T02:50:23;15.70;99.90
22716;DHT22;11525;51.152;4.456;2022-08-21T02:52:50;15.70;99.90
22716;DHT22;11525;51.152;4.456;2022-08-21T02:55:19;15.60;99.90
22716;DHT22;11525;51.152;4.456;2022-08-21T02:57:46;15.60;99.90
22716;DHT22;11525;51.152;4.456;2022-08-21T03:00:13;15.70;99.90
22716;DHT22;11525;51.152;4.456;2022-08-21T03:02:39;15.70;99.90
22716;DHT22;11525;51.152;4.456;2022-08-21T03:05:07;15.70;99.90
22716;DHT22;11525;51.152;4.456;2022-08-21T03:07:33;15.60;99.90
22716;DHT22;11525;51.152;4.456;2022-08-21T03:10:00;15.60;99.90
22716;DHT22;11525;51.152;4.456;2022-08-21T03:12:26;15.60;99.90
22716;DHT22;11525;51.152;4.456;2022-08-21T03:14:52;15.60;99.90
22716;DHT22;11525;51.152;4.456;2022-08-21T03:17:17;15.50;99.90
22716;DHT22;11525;51.152;4.456;2022-08-21T03:19:43;15.50;99.90
22716;DHT22;11525;51.152;4.456;2022-08-21T03:22:09;15.60;99.90
22716;DHT22;11525;51.152;4.456;2022-08-21T03:24:34;15.50;99.90
22716;DHT22;11525;51.152;4.456;2022-08-21T03:27:00;15.50;99.90
22716;DHT22;11525;51.152;4.456;2022-08-21T03:29:26;15.40;99.90
22716;DHT22;11525;51.152;4.456;2022-08-21T03:31:52;15.50;99.90
22716;DHT22;11525;51.152;4.456;2022-08-21T03:34:20;15.40;99.90
22716;DHT22;11525;51.152;4.456;2022-08-21T03:36:46;15.50;99.90
22716;DHT22;11525;51.152;4.456;2022-08-21T03:39:13;15.50;99.90
22716;DHT22;11525;51.152;4.456;2022-08-21T03:41:39;15.50;99.90
22716;DHT22;11525;51.152;4.456;2022-08-21T03:44:04;15.40;99.90
22716;DHT22;11525;51.152;4.456;2022-08-21T03:46:30;15.40;99.90
22716;DHT22;11525;51.152;4.456;2022-08-21T03:48:57;15.40;99.90
22716;DHT22;11525;51.152;4.456;2022-08-21T03:51:22;15.40;99.90
22716;DHT22;11525;51.152;4.456;2022-08-21T03:53:48;15.40;99.90
22716;DHT22;11525;51.152;4.456;2022-08-21T03:56:14;15.40;99.90
22716;DHT22;11525;51.152;4.456;2022-08-21T03:58:44;15.40;99.90
22716;DHT22;11525;51.152;4.456;2022-08-21T04:01:10;15.40;99.90
22716;DHT22;11525;51.152;4.456;2022-08-21T04:03:37;15.30;99.90
22716;DHT22;11525;51.152;4.456;2022-08-21T04:06:04;15.40;99.90
22716;DHT22;11525;51.152;4.456;2022-08-21T04:08:29;15.30;99.90
22716;DHT22;11525;51.152;4.456;2022-08-21T04:10:56;15.30;99.90
22716;DHT22;11525;51.152;4.456;2022-08-21T04:13:23;15.20;99.90
22716;DHT22;11525;51.152;4.456;2022-08-21T04:15:49;15.20;99.90
22716;DHT22;11525;51.152;4.456;2022-08-21T04:18:16;15.20;99.90
22716;DHT22;11525;51.152;4.456;2022-08-21T04:20:43;15.20;99.90
22716;DHT22;11525;51.152;4.456;2022-08-21T04:23:10;15.20;99.90
22716;DHT22;11525;51.152;4.456;2022-08-21T04:25:37;15.20;99.90
22716;DHT22;11525;51.152;4.456;2022-08-21T04:28:03;15.20;99.90
22716;DHT22;11525;51.152;4.456;2022-08-21T04:30:30;15.20;99.90
22716;DHT22;11525;51.152;4.456;2022-08-21T04:32:57;15.10;99.90
22716;DHT22;11525;51.152;4.456;2022-08-21T04:35:24;15.20;99.90
22716;DHT22;11525;51.152;4.456;2022-08-21T04:37:50;15.20;99.90
22716;DHT22;11525;51.152;4.456;2022-08-21T04:40:17;15.20;99.90
22716;DHT22;11525;51.152;4.456;2022-08-21T04:42:50;15.20;99.90
22716;DHT22;11525;51.152;4.456;2022-08-21T04:45:27;15.10;99.90
22716;DHT22;11525;51.152;4.456;2022-08-21T04:47:57;15.20;99.90
22716;DHT22;11525;51.152;4.456;2022-08-21T04:50:35;15.10;99.90
22716;DHT22;11525;51.152;4.456;2022-08-21T04:53:03;15.10;99.90
22716;DHT22;11525;51.152;4.456;2022-08-21T04:55:28;15.20;99.90
22716;DHT22;11525;51.152;4.456;2022-08-21T04:57:55;15.20;99.90
22716;DHT22;11525;51.152;4.456;2022-08-21T05:00:23;15.20;99.90
22716;DHT22;11525;51.152;4.456;2022-08-21T05:02:51;15.30;99.90
22716;DHT22;11525;51.152;4.456;2022-08-21T05:05:22;15.20;99.90
22716;DHT22;11525;51.152;4.456;2022-08-21T05:07:48;15.30;99.90
22716;DHT22;11525;51.152;4.456;2022-08-21T05:10:14;15.30;99.90
22716;DHT22;11525;51.152;4.456;2022-08-21T05:12:41;15.40;99.90
22716;DHT22;11525;51.152;4.456;2022-08-21T05:15:08;15.40;99.90
22716;DHT22;11525;51.152;4.456;2022-08-21T05:17:34;15.40;99.90
22716;DHT22;11525;51.152;4.456;2022-08-21T05:20:00;15.50;99.90
22716;DHT22;11525;51.152;4.456;2022-08-21T05:22:27;15.50;99.90
22716;DHT22;11525;51.152;4.456;2022-08-21T05:24:52;15.60;99.90
22716;DHT22;11525;51.152;4.456;2022-08-21T05:27:18;15.80;99.90
22716;DHT22;11525;51.152;4.456;2022-08-21T05:29:44;15.80;99.90
22716;DHT22;11525;51.152;4.456;2022-08-21T05:32:11;15.80;99.90
22716;DHT22;11525;51.152;4.456;2022-08-21T05:34:37;16.00;99.90
22716;DHT22;11525;51.152;4.456;2022-08-21T05:37:03;16.00;99.90
22716;DHT22;11525;51.152;4.456;2022-08-21T05:39:29;16.00;99.90
22716;DHT22;11525;51.152;4.456;2022-08-21T05:41:55;16.10;99.90
22716;DHT22;11525;51.152;4.456;2022-08-21T05:44:21;16.10;99.90
22716;DHT22;11525;51.152;4.456;2022-08-21T05:46:46;16.20;99.90
22716;DHT22;11525;51.152;4.456;2022-08-21T05:49:12;16.40;99.90
22716;DHT22;11525;51.152;4.456;2022-08-21T05:51:40;16.50;99.90
22716;DHT22;11525;51.152;4.456;2022-08-21T05:54:07;16.50;99.90
22716;DHT22;11525;51.152;4.456;2022-08-21T05:56:33;16.60;99.90
22716;DHT22;11525;51.152;4.456;2022-08-21T05:58:59;16.60;99.90
22716;DHT22;11525;51.152;4.456;2022-08-21T06:01:24;16.70;99.90
22716;DHT22;11525;51.152;4.456;2022-08-21T06:03:50;16.80;99.90
22716;DHT22;11525;51.152;4.456;2022-08-21T06:06:16;16.90;99.90
22716;DHT22;11525;51.152;4.456;2022-08-21T06:08:42;17.00;99.90
22716;DHT22;11525;51.152;4.456;2022-08-21T06:11:09;17.30;99.90
22716;DHT22;11525;51.152;4.456;2022-08-21T06:13:35;17.40;99.90
22716;DHT22;11525;51.152;4.456;2022-08-21T06:16:06;17.50;99.90
22716;DHT22;11525;51.152;4.456;2022-08-21T06:18:33;17.60;99.90
22716;DHT22;11525;51.152;4.456;2022-08-21T06:20:59;18.10;99.90
22716;DHT22;11525;51.152;4.456;2022-08-21T06:23:25;18.90;99.90
22716;DHT22;11525;51.152;4.456;2022-08-21T06:25:50;20.20;99.90
22716;DHT22;11525;51.152;4.456;2022-08-21T06:28:16;22.00;99.90
22716;DHT22;11525;51.152;4.456;2022-08-21T06:30:42;23.90;99.90
22716;DHT22;11525;51.152;4.456;2022-08-21T06:33:08;25.60;99.90
22716;DHT22;11525;51.152;4.456;2022-08-21T06:35:34;27.20;99.90
22716;DHT22;11525;51.152;4.456;2022-08-21T06:38:00;28.40;97.40
22716;DHT22;11525;51.152;4.456;2022-08-21T06:40:27;29.30;92.60
22716;DHT22;11525;51.152;4.456;2022-08-21T06:42:53;30.20;89.10
22716;DHT22;11525;51.152;4.456;2022-08-21T06:45:18;30.60;83.80
22716;DHT22;11525;51.152;4.456;2022-08-21T06:47:44;31.50;78.10
22716;DHT22;11525;51.152;4.456;2022-08-21T06:50:10;32.40;72.50
22716;DHT22;11525;51.152;4.456;2022-08-21T06:52:36;33.40;66.70
22716;DHT22;11525;51.152;4.456;2022-08-21T06:55:05;34.00;62.60
22716;DHT22;11525;51.152;4.456;2022-08-21T06:57:31;34.20;59.80
22716;DHT22;11525;51.152;4.456;2022-08-21T06:59:57;34.60;58.10
22716;DHT22;11525;51.152;4.456;2022-08-21T07:02:22;34.40;57.30
22716;DHT22;11525;51.152;4.456;2022-08-21T07:04:48;34.30;57.20
22716;DHT22;11525;51.152;4.456;2022-08-21T07:07:14;34.50;56.30
22716;DHT22;11525;51.152;4.456;2022-08-21T07:09:39;34.70;56.00
22716;DHT22;11525;51.152;4.456;2022-08-21T07:12:05;34.70;55.00
22716;DHT22;11525;51.152;4.456;2022-08-21T07:14:32;35.00;54.30
22716;DHT22;11525;51.152;4.456;2022-08-21T07:16:58;34.90;54.00
22716;DHT22;11525;51.152;4.456;2022-08-21T07:19:23;35.30;53.70
22716;DHT22;11525;51.152;4.456;2022-08-21T07:21:49;35.50;52.90
22716;DHT22;11525;51.152;4.456;2022-08-21T07:24:15;35.90;51.80
22716;DHT22;11525;51.152;4.456;2022-08-21T07:26:40;34.60;53.20
22716;DHT22;11525;51.152;4.456;2022-08-21T07:29:06;35.30;52.60
22716;DHT22;11525;51.152;4.456;2022-08-21T07:31:32;34.80;52.80
22716;DHT22;11525;51.152;4.456;2022-08-21T07:33:58;35.10;51.70
22716;DHT22;11525;51.152;4.456;2022-08-21T07:36:24;34.70;51.90
22716;DHT22;11525;51.152;4.456;2022-08-21T07:38:50;34.30;52.80
22716;DHT22;11525;51.152;4.456;2022-08-21T07:41:25;32.70;56.80
22716;DHT22;11525;51.152;4.456;2022-08-21T07:43:52;32.90;57.80
22716;DHT22;11525;51.152;4.456;2022-08-21T07:46:17;33.00;57.10
22716;DHT22;11525;51.152;4.456;2022-08-21T07:48:43;33.30;56.10
22716;DHT22;11525;51.152;4.456;2022-08-21T07:51:12;34.20;54.70
22716;DHT22;11525;51.152;4.456;2022-08-21T07:53:38;35.50;53.10
22716;DHT22;11525;51.152;4.456;2022-08-21T07:56:05;36.60;50.90
22716;DHT22;11525;51.152;4.456;2022-08-21T07:58:32;36.60;49.40
22716;DHT22;11525;51.152;4.456;2022-08-21T08:00:58;36.50;49.60
22716;DHT22;11525;51.152;4.456;2022-08-21T08:03:23;36.20;49.70
22716;DHT22;11525;51.152;4.456;2022-08-21T08:05:49;36.50;49.20
22716;DHT22;11525;51.152;4.456;2022-08-21T08:08:15;36.50;48.40
22716;DHT22;11525;51.152;4.456;2022-08-21T08:10:42;36.80;48.00
22716;DHT22;11525;51.152;4.456;2022-08-21T08:13:08;36.50;48.00
22716;DHT22;11525;51.152;4.456;2022-08-21T08:15:35;36.80;48.10
22716;DHT22;11525;51.152;4.456;2022-08-21T08:18:01;37.50;47.30
22716;DHT22;11525;51.152;4.456;2022-08-21T08:20:28;37.30;46.70
22716;DHT22;11525;51.152;4.456;2022-08-21T08:22:55;36.90;47.20
22716;DHT22;11525;51.152;4.456;2022-08-21T08:25:22;37.10;46.80
22716;DHT22;11525;51.152;4.456;2022-08-21T08:27:48;37.40;46.60
22716;DHT22;11525;51.152;4.456;2022-08-21T08:30:16;37.40;46.10
22716;DHT22;11525;51.152;4.456;2022-08-21T08:32:43;37.20;46.30
22716;DHT22;11525;51.152;4.456;2022-08-21T08:35:10;36.50;46.00
22716;DHT22;11525;51.152;4.456;2022-08-21T08:37:38;36.00;47.50
22716;DHT22;11525;51.152;4.456;2022-08-21T08:40:09;35.20;47.80
22716;DHT22;11525;51.152;4.456;2022-08-21T08:42:36;34.90;49.50
22716;DHT22;11525;51.152;4.456;2022-08-21T08:45:15;35.30;49.00
22716;DHT22;11525;51.152;4.456;2022-08-21T08:47:55;35.90;48.10
22716;DHT22;11525;51.152;4.456;2022-08-21T08:50:49;36.20;47.70
22716;DHT22;11525;51.152;4.456;2022-08-21T08:53:33;36.20;46.30
22716;DHT22;11525;51.152;4.456;2022-08-21T08:56:00;36.80;46.00
22716;DHT22;11525;51.152;4.456;2022-08-21T08:58:33;37.10;45.70
22716;DHT22;11525;51.152;4.456;2022-08-21T09:01:08;36.60;45.40
22716;DHT22;11525;51.152;4.456;2022-08-21T09:03:38;36.00;46.20
22716;DHT22;11525;51.152;4.456;2022-08-21T09:06:34;35.70;47.00
22716;DHT22;11525;51.152;4.456;2022-08-21T09:11:41;35.10;47.40
22716;DHT22;11525;51.152;4.456;2022-08-21T09:25:45;36.80;45.80
22716;DHT22;11525;51.152;4.456;2022-08-21T09:28:15;35.90;45.80
22716;DHT22;11525;51.152;4.456;2022-08-21T09:30:41;35.50;47.10
22716;DHT22;11525;51.152;4.456;2022-08-21T09:33:09;35.60;47.30
22716;DHT22;11525;51.152;4.456;2022-08-21T09:35:47;35.70;46.70
22716;DHT22;11525;51.152;4.456;2022-08-21T09:38:25;35.70;46.10
22716;DHT22;11525;51.152;4.456;2022-08-21T09:40:59;34.30;47.30
22716;DHT22;11525;51.152;4.456;2022-08-21T09:43:26;33.40;49.20
22716;DHT22;11525;51.152;4.456;2022-08-21T09:46:10;33.00;49.10
22716;DHT22;11525;51.152;4.456;2022-08-21T09:48:48;31.00;52.90
22716;DHT22;11525;51.152;4.456;2022-08-21T09:51:26;30.30;56.20
22716;DHT22;11525;51.152;4.456;2022-08-21T09:54:18;29.50;58.30
22716;DHT22;11525;51.152;4.456;2022-08-21T09:59:43;28.50;64.70
22716;DHT22;11525;51.152;4.456;2022-08-21T10:02:31;27.50;69.40
22716;DHT22;11525;51.152;4.456;2022-08-21T10:05:09;28.00;70.70
22716;DHT22;11525;51.152;4.456;2022-08-21T10:07:40;28.10;70.70
22716;DHT22;11525;51.152;4.456;2022-08-21T10:10:13;28.30;71.00
22716;DHT22;11525;51.152;4.456;2022-08-21T10:15:40;28.40;71.10
22716;DHT22;11525;51.152;4.456;2022-08-21T10:29:21;30.50;61.30
22716;DHT22;11525;51.152;4.456;2022-08-21T10:31:54;32.00;56.10
22716;DHT22;11525;51.152;4.456;2022-08-21T10:34:46;32.20;55.80
22716;DHT22;11525;51.152;4.456;2022-08-21T10:51:16;32.90;52.10
22716;DHT22;11525;51.152;4.456;2022-08-21T10:56:23;31.10;56.30
22716;DHT22;11525;51.152;4.456;2022-08-21T10:59:14;30.70;58.10
22716;DHT22;11525;51.152;4.456;2022-08-21T11:01:53;30.40;60.10
22716;DHT22;11525;51.152;4.456;2022-08-21T11:05:00;29.90;60.00
22716;DHT22;11525;51.152;4.456;2022-08-21T11:07:38;29.70;63.50
22716;DHT22;11525;51.152;4.456;2022-08-21T11:10:31;28.50;63.20
22716;DHT22;11525;51.152;4.456;2022-08-21T11:13:24;28.50;66.20
22716;DHT22;11525;51.152;4.456;2022-08-21T11:16:14;28.40;67.70
22716;DHT22;11525;51.152;4.456;2022-08-21T11:18:49;28.00;69.50
22716;DHT22;11525;51.152;4.456;2022-08-21T11:21:33;28.10;69.50
22716;DHT22;11525;51.152;4.456;2022-08-21T11:27:40;27.90;69.40
22716;DHT22;11525;51.152;4.456;2022-08-21T11:29:41;27.90;70.60
22716;DHT22;11525;51.152;4.456;2022-08-21T11:32:28;27.90;71.60
22716;DHT22;11525;51.152;4.456;2022-08-21T11:46:36;27.00;73.90
22716;DHT22;11525;51.152;4.456;2022-08-21T11:49:26;26.80;77.00
22716;DHT22;11525;51.152;4.456;2022-08-21T11:52:18;26.40;76.80
22716;DHT22;11525;51.152;4.456;2022-08-21T11:54:57;26.70;79.40
22716;DHT22;11525;51.152;4.456;2022-08-21T12:02:28;27.50;71.90
22716;DHT22;11525;51.152;4.456;2022-08-21T12:04:59;27.30;72.90
22716;DHT22;11525;51.152;4.456;2022-08-21T12:07:44;27.80;70.90
22716;DHT22;11525;51.152;4.456;2022-08-21T12:10:15;27.30;70.70
22716;DHT22;11525;51.152;4.456;2022-08-21T12:12:43;26.90;74.20
22716;DHT22;11525;51.152;4.456;2022-08-21T12:17:38;26.80;73.60
22716;DHT22;11525;51.152;4.456;2022-08-21T12:23:03;27.40;72.10
22716;DHT22;11525;51.152;4.456;2022-08-21T12:25:46;27.40;71.30
22716;DHT22;11525;51.152;4.456;2022-08-21T12:28:15;27.30;73.00
22716;DHT22;11525;51.152;4.456;2022-08-21T12:30:44;27.10;71.50
22716;DHT22;11525;51.152;4.456;2022-08-21T12:33:32;27.20;70.90
22716;DHT22;11525;51.152;4.456;2022-08-21T12:38:45;26.70;74.10
22716;DHT22;11525;51.152;4.456;2022-08-21T12:41:17;26.80;74.20
22716;DHT22;11525;51.152;4.456;2022-08-21T12:44:01;27.00;71.20
22716;DHT22;11525;51.152;4.456;2022-08-21T12:46:55;27.20;73.30
22716;DHT22;11525;51.152;4.456;2022-08-21T12:52:24;27.20;72.00
22716;DHT22;11525;51.152;4.456;2022-08-21T12:54:50;27.00;73.20
22716;DHT22;11525;51.152;4.456;2022-08-21T12:57:25;27.00;74.90
22716;DHT22;11525;51.152;4.456;2022-08-21T12:59:57;26.90;75.10
22716;DHT22;11525;51.152;4.456;2022-08-21T13:02:27;26.80;75.80
22716;DHT22;11525;51.152;4.456;2022-08-21T13:04:54;26.90;74.50
22716;DHT22;11525;51.152;4.456;2022-08-21T13:07:31;27.10;73.30
22716;DHT22;11525;51.152;4.456;2022-08-21T13:10:06;27.40;71.30
22716;DHT22;11525;51.152;4.456;2022-08-21T13:12:33;27.80;71.30
22716;DHT22;11525;51.152;4.456;2022-08-21T13:15:04;27.90;69.60
22716;DHT22;11525;51.152;4.456;2022-08-21T13:17:34;28.00;67.60
22716;DHT22;11525;51.152;4.456;2022-08-21T13:20:04;27.70;66.20
22716;DHT22;11525;51.152;4.456;2022-08-21T13:22:30;27.40;66.10
22716;DHT22;11525;51.152;4.456;2022-08-21T13:24:57;27.30;68.50
22716;DHT22;11525;51.152;4.456;2022-08-21T13:27:26;27.50;69.10
22716;DHT22;11525;51.152;4.456;2022-08-21T13:30:19;27.30;69.70
22716;DHT22;11525;51.152;4.456;2022-08-21T13:32:51;27.30;71.00
22716;DHT22;11525;51.152;4.456;2022-08-21T13:35:19;27.40;70.00
22716;DHT22;11525;51.152;4.456;2022-08-21T13:37:49;27.10;70.60
22716;DHT22;11525;51.152;4.456;2022-08-21T13:40:23;26.90;71.60
22716;DHT22;11525;51.152;4.456;2022-08-21T13:42:49;27.10;72.70
22716;DHT22;11525;51.152;4.456;2022-08-21T13:45:22;27.30;71.30
22716;DHT22;11525;51.152;4.456;2022-08-21T13:47:48;27.40;68.70
22716;DHT22;11525;51.152;4.456;2022-08-21T13:50:16;27.70;66.50
22716;DHT22;11525;51.152;4.456;2022-08-21T13:53:20;27.30;64.50
22716;DHT22;11525;51.152;4.456;2022-08-21T13:55:47;27.20;64.00
22716;DHT22;11525;51.152;4.456;2022-08-21T13:58:24;27.10;66.10
22716;DHT22;11525;51.152;4.456;2022-08-21T14:00:51;27.00;66.50
22716;DHT22;11525;51.152;4.456;2022-08-21T14:03:41;26.60;67.30
22716;DHT22;11525;51.152;4.456;2022-08-21T14:06:16;26.60;68.80
22716;DHT22;11525;51.152;4.456;2022-08-21T14:08:50;26.50;70.60
22716;DHT22;11525;51.152;4.456;2022-08-21T14:11:17;26.50;70.60
22716;DHT22;11525;51.152;4.456;2022-08-21T14:13:56;26.40;72.00
22716;DHT22;11525;51.152;4.456;2022-08-21T14:16:28;26.20;71.90
22716;DHT22;11525;51.152;4.456;2022-08-21T14:21:35;26.20;71.50
22716;DHT22;11525;51.152;4.456;2022-08-21T14:24:05;26.30;71.90
22716;DHT22;11525;51.152;4.456;2022-08-21T14:26:34;26.50;73.90
22716;DHT22;11525;51.152;4.456;2022-08-21T14:29:01;26.20;74.40
22716;DHT22;11525;51.152;4.456;2022-08-21T14:31:31;26.60;73.80
22716;DHT22;11525;51.152;4.456;2022-08-21T14:33:59;26.80;72.20
22716;DHT22;11525;51.152;4.456;2022-08-21T14:36:26;27.00;70.80
22716;DHT22;11525;51.152;4.456;2022-08-21T14:38:52;26.80;71.50
22716;DHT22;11525;51.152;4.456;2022-08-21T14:41:23;26.90;72.20
22716;DHT22;11525;51.152;4.456;2022-08-21T14:43:50;27.00;72.60
22716;DHT22;11525;51.152;4.456;2022-08-21T14:46:25;26.90;72.90
22716;DHT22;11525;51.152;4.456;2022-08-21T14:48:52;26.90;74.00
22716;DHT22;11525;51.152;4.456;2022-08-21T14:51:18;27.00;72.50
22716;DHT22;11525;51.152;4.456;2022-08-21T14:53:44;26.80;72.60
22716;DHT22;11525;51.152;4.456;2022-08-21T14:56:11;26.60;73.40
22716;DHT22;11525;51.152;4.456;2022-08-21T14:58:46;26.40;74.30
22716;DHT22;11525;51.152;4.456;2022-08-21T15:01:16;26.40;74.80
22716;DHT22;11525;51.152;4.456;2022-08-21T15:03:44;26.20;75.20
22716;DHT22;11525;51.152;4.456;2022-08-21T15:06:12;26.10;75.30
22716;DHT22;11525;51.152;4.456;2022-08-21T15:08:38;26.10;78.10
22716;DHT22;11525;51.152;4.456;2022-08-21T15:11:04;26.20;77.70
22716;DHT22;11525;51.152;4.456;2022-08-21T15:13:31;26.30;77.70
22716;DHT22;11525;51.152;4.456;2022-08-21T15:15:57;26.30;76.50
22716;DHT22;11525;51.152;4.456;2022-08-21T15:18:25;26.30;75.40
22716;DHT22;11525;51.152;4.456;2022-08-21T15:20:52;26.20;76.50
22716;DHT22;11525;51.152;4.456;2022-08-21T15:23:18;26.10;77.90
22716;DHT22;11525;51.152;4.456;2022-08-21T15:25:46;26.30;77.20
22716;DHT22;11525;51.152;4.456;2022-08-21T15:28:13;26.50;76.40
22716;DHT22;11525;51.152;4.456;2022-08-21T15:30:40;26.80;75.50
22716;DHT22;11525;51.152;4.456;2022-08-21T15:33:07;26.80;73.10
22716;DHT22;11525;51.152;4.456;2022-08-21T15:35:34;26.80;72.90
22716;DHT22;11525;51.152;4.456;2022-08-21T15:38:00;26.70;73.00
22716;DHT22;11525;51.152;4.456;2022-08-21T15:40:26;26.80;72.10
22716;DHT22;11525;51.152;4.456;2022-08-21T15:42:56;26.70;72.60
22716;DHT22;11525;51.152;4.456;2022-08-21T15:45:22;26.50;72.90
22716;DHT22;11525;51.152;4.456;2022-08-21T15:47:49;26.60;73.50
22716;DHT22;11525;51.152;4.456;2022-08-21T15:50:15;26.60;74.20
22716;DHT22;11525;51.152;4.456;2022-08-21T15:52:41;26.60;74.60
22716;DHT22;11525;51.152;4.456;2022-08-21T15:55:08;26.70;73.40
22716;DHT22;11525;51.152;4.456;2022-08-21T15:57:35;26.70;71.90
22716;DHT22;11525;51.152;4.456;2022-08-21T16:00:32;26.80;73.70
22716;DHT22;11525;51.152;4.456;2022-08-21T16:03:00;26.90;73.60
22716;DHT22;11525;51.152;4.456;2022-08-21T16:05:28;26.90;73.30
22716;DHT22;11525;51.152;4.456;2022-08-21T16:07:53;26.70;73.20
22716;DHT22;11525;51.152;4.456;2022-08-21T16:10:22;26.50;73.60
22716;DHT22;11525;51.152;4.456;2022-08-21T16:12:58;26.30;73.40
22716;DHT22;11525;51.152;4.456;2022-08-21T16:15:26;26.30;74.60
22716;DHT22;11525;51.152;4.456;2022-08-21T16:17:52;26.20;76.20
22716;DHT22;11525;51.152;4.456;2022-08-21T16:20:23;26.20;75.40
22716;DHT22;11525;51.152;4.456;2022-08-21T16:22:51;26.30;75.60
22716;DHT22;11525;51.152;4.456;2022-08-21T16:25:18;26.20;75.20
22716;DHT22;11525;51.152;4.456;2022-08-21T16:27:48;26.10;76.70
22716;DHT22;11525;51.152;4.456;2022-08-21T16:30:16;26.00;75.60
22716;DHT22;11525;51.152;4.456;2022-08-21T16:32:43;26.00;76.20
22716;DHT22;11525;51.152;4.456;2022-08-21T16:35:15;25.80;76.10
22716;DHT22;11525;51.152;4.456;2022-08-21T16:37:41;25.50;78.30
22716;DHT22;11525;51.152;4.456;2022-08-21T16:40:08;25.30;80.70
22716;DHT22;11525;51.152;4.456;2022-08-21T16:42:36;25.20;82.20
22716;DHT22;11525;51.152;4.456;2022-08-21T16:45:06;25.20;81.50
22716;DHT22;11525;51.152;4.456;2022-08-21T16:47:32;25.20;82.30
22716;DHT22;11525;51.152;4.456;2022-08-21T16:49:58;25.10;82.90
22716;DHT22;11525;51.152;4.456;2022-08-21T16:52:24;25.00;84.90
22716;DHT22;11525;51.152;4.456;2022-08-21T16:54:49;25.10;85.40
22716;DHT22;11525;51.152;4.456;2022-08-21T16:57:15;25.00;86.80
22716;DHT22;11525;51.152;4.456;2022-08-21T16:59:42;24.90;86.60
22716;DHT22;11525;51.152;4.456;2022-08-21T17:02:24;24.90;87.60
22716;DHT22;11525;51.152;4.456;2022-08-21T17:04:52;24.80;87.80